sensor_id;sensor_type;location;lat;lon;timestamp;P1;durP1;ratioP1;P2;durP2;ratioP2
80409;SDS011;69746;45.596;10.154;2023-06-24T00:01:23;4.45;;;3.05;;
80409;SDS011;69746;45.596;10.154;2023-06-24T00:03:49;3.65;;;2.60;;
80409;SDS011;69746;45.596;10.154;2023-06-24T00:06:19;4.72;;;3.25;;
80409;SDS011;69746;45.596;10.154;2023-06-24T00:08:45;4.25;;;2.97;;
80409;SDS011;69746;45.596;10.154;2023-06-24T00:11:11;4.07;;;3.22;;
80409;SDS011;69746;45.596;10.154;2023-06-24T00:13:39;4.18;;;2.90;;
80409;SDS011;69746;45.596;10.154;2023-06-24T00:16:06;3.95;;;2.40;;
80409;SDS011;69746;45.596;10.154;2023-06-24T00:18:32;3.88;;;2.95;;
80409;SDS011;69746;45.596;10.154;2023-06-24T00:20:58;3.58;;;2.70;;
80409;SDS011;69746;45.596;10.154;2023-06-24T00:23:24;3.97;;;3.10;;
80409;SDS011;69746;45.596;10.154;2023-06-24T00:25:50;4.22;;;2.72;;
80409;SDS011;69746;45.596;10.154;2023-06-24T00:28:17;3.70;;;2.78;;
80409;SDS011;69746;45.596;10.154;2023-06-24T00:30:42;4.38;;;2.80;;
80409;SDS011;69746;45.596;10.154;2023-06-24T00:33:08;4.43;;;2.88;;
80409;SDS011;69746;45.596;10.154;2023-06-24T00:35:37;4.22;;;2.88;;
80409;SDS011;69746;45.596;10.154;2023-06-24T00:38:03;3.60;;;2.55;;
80409;SDS011;69746;45.596;10.154;2023-06-24T00:40:29;4.03;;;2.80;;
80409;SDS011;69746;45.596;10.154;2023-06-24T00:42:55;3.38;;;2.50;;
80409;SDS011;69746;45.596;10.154;2023-06-24T00:45:23;3.83;;;2.80;;
80409;SDS011;69746;45.596;10.154;2023-06-24T00:47:49;4.13;;;2.75;;
80409;SDS011;69746;45.596;10.154;2023-06-24T00:50:15;3.65;;;2.55;;
80409;SDS011;69746;45.596;10.154;2023-06-24T00:52:41;3.80;;;2.53;;
80409;SDS011;69746;45.596;10.154;2023-06-24T00:55:07;3.47;;;2.47;;
80409;SDS011;69746;45.596;10.154;2023-06-24T00:57:39;3.60;;;2.70;;
80409;SDS011;69746;45.596;10.154;2023-06-24T01:00:09;4.38;;;2.90;;
80409;SDS011;69746;45.596;10.154;2023-06-24T01:02:41;4.15;;;2.80;;
80409;SDS011;69746;45.596;10.154;2023-06-24T01:05:08;3.85;;;2.72;;
80409;SDS011;69746;45.596;10.154;2023-06-24T01:07:37;3.53;;;2.42;;
80409;SDS011;69746;45.596;10.154;2023-06-24T01:10:04;3.28;;;2.45;;
80409;SDS011;69746;45.596;10.154;2023-06-24T01:15:02;4.10;;;2.60;;
80409;SDS011;69746;45.596;10.154;2023-06-24T01:17:33;4.03;;;2.25;;
80409;SDS011;69746;45.596;10.154;2023-06-24T01:20:10;4.22;;;2.88;;
80409;SDS011;69746;45.596;10.154;2023-06-24T01:36:43;3.40;;;2.35;;
80409;SDS011;69746;45.596;10.154;2023-06-24T01:39:22;3.53;;;2.60;;
80409;SDS011;69746;45.596;10.154;2023-06-24T01:41:54;3.50;;;2.53;;
80409;SDS011;69746;45.596;10.154;2023-06-24T01:44:25;3.53;;;2.58;;
80409;SDS011;69746;45.596;10.154;2023-06-24T01:46:55;4.05;;;2.70;;
80409;SDS011;69746;45.596;10.154;2023-06-24T01:49:24;4.32;;;2.85;;
80409;SDS011;69746;45.596;10.154;2023-06-24T01:51:55;3.67;;;2.70;;
80409;SDS011;69746;45.596;10.154;2023-06-24T01:54:26;4.47;;;2.58;;
80409;SDS011;69746;45.596;10.154;2023-06-24T01:56:54;4.93;;;2.78;;
80409;SDS011;69746;45.596;10.154;2023-06-24T01:59:25;4.30;;;2.70;;
80409;SDS011;69746;45.596;10.154;2023-06-24T02:01:53;3.58;;;2.70;;
80409;SDS011;69746;45.596;10.154;2023-06-24T02:04:21;3.50;;;2.40;;
80409;SDS011;69746;45.596;10.154;2023-06-24T02:06:49;3.75;;;2.40;;
80409;SDS011;69746;45.596;10.154;2023-06-24T02:11:44;4.00;;;2.70;;
80409;SDS011;69746;45.596;10.154;2023-06-24T02:14:11;5.88;;;2.58;;
80409;SDS011;69746;45.596;10.154;2023-06-24T02:16:39;4.13;;;2.40;;
80409;SDS011;69746;45.596;10.154;2023-06-24T02:19:07;4.25;;;2.83;;
80409;SDS011;69746;45.596;10.154;2023-06-24T02:21:35;3.72;;;2.55;;
80409;SDS011;69746;45.596;10.154;2023-06-24T02:24:04;4.10;;;2.53;;
80409;SDS011;69746;45.596;10.154;2023-06-24T02:26:31;4.15;;;3.03;;
80409;SDS011;69746;45.596;10.154;2023-06-24T02:28:57;4.22;;;2.90;;
80409;SDS011;69746;45.596;10.154;2023-06-24T02:31:23;4.20;;;2.72;;
80409;SDS011;69746;45.596;10.154;2023-06-24T02:33:49;4.18;;;2.65;;
80409;SDS011;69746;45.596;10.154;2023-06-24T02:36:15;5.00;;;3.17;;
80409;SDS011;69746;45.596;10.154;2023-06-24T02:38:41;4.57;;;2.92;;
80409;SDS011;69746;45.596;10.154;2023-06-24T02:41:07;3.90;;;2.60;;
80409;SDS011;69746;45.596;10.154;2023-06-24T02:43:33;4.55;;;2.72;;
80409;SDS011;69746;45.596;10.154;2023-06-24T02:46:04;4.88;;;2.63;;
80409;SDS011;69746;45.596;10.154;2023-06-24T02:48:33;4.88;;;2.70;;
80409;SDS011;69746;45.596;10.154;2023-06-24T02:51:02;5.07;;;2.47;;
80409;SDS011;69746;45.596;10.154;2023-06-24T02:53:30;4.53;;;2.78;;
80409;SDS011;69746;45.596;10.154;2023-06-24T02:55:56;4.05;;;2.92;;
80409;SDS011;69746;45.596;10.154;2023-06-24T02:58:23;4.85;;;3.22;;
80409;SDS011;69746;45.596;10.154;2023-06-24T03:00:49;3.70;;;2.75;;
80409;SDS011;69746;45.596;10.154;2023-06-24T03:03:15;4.03;;;2.85;;
80409;SDS011;69746;45.596;10.154;2023-06-24T03:05:45;4.80;;;2.83;;
80409;SDS011;69746;45.596;10.154;2023-06-24T03:08:13;4.28;;;2.88;;
80409;SDS011;69746;45.596;10.154;2023-06-24T03:10:40;4.82;;;2.90;;
80409;SDS011;69746;45.596;10.154;2023-06-24T03:13:06;4.10;;;2.78;;
80409;SDS011;69746;45.596;10.154;2023-06-24T03:15:32;5.97;;;2.72;;
80409;SDS011;69746;45.596;10.154;2023-06-24T03:17:58;4.93;;;2.65;;
80409;SDS011;69746;45.596;10.154;2023-06-24T03:20:23;5.38;;;3.00;;
80409;SDS011;69746;45.596;10.154;2023-06-24T03:22:50;3.90;;;2.63;;
80409;SDS011;69746;45.596;10.154;2023-06-24T03:25:17;4.07;;;2.70;;
80409;SDS011;69746;45.596;10.154;2023-06-24T03:27:43;3.97;;;2.75;;
80409;SDS011;69746;45.596;10.154;2023-06-24T03:30:10;4.82;;;2.67;;
80409;SDS011;69746;45.596;10.154;2023-06-24T03:32:40;4.15;;;2.70;;
80409;SDS011;69746;45.596;10.154;2023-06-24T03:35:05;4.30;;;2.80;;
80409;SDS011;69746;45.596;10.154;2023-06-24T03:37:32;3.50;;;2.50;;
80409;SDS011;69746;45.596;10.154;2023-06-24T03:39:58;3.28;;;2.10;;
80409;SDS011;69746;45.596;10.154;2023-06-24T03:42:23;4.30;;;2.65;;
80409;SDS011;69746;45.596;10.154;2023-06-24T03:44:49;5.47;;;3.03;;
80409;SDS011;69746;45.596;10.154;2023-06-24T03:47:15;4.28;;;2.92;;
80409;SDS011;69746;45.596;10.154;2023-06-24T03:49:41;4.38;;;3.13;;
80409;SDS011;69746;45.596;10.154;2023-06-24T03:52:10;4.70;;;2.90;;
80409;SDS011;69746;45.596;10.154;2023-06-24T03:54:35;4.75;;;2.97;;
80409;SDS011;69746;45.596;10.154;2023-06-24T03:57:02;3.47;;;2.53;;
80409;SDS011;69746;45.596;10.154;2023-06-24T03:59:28;4.43;;;3.15;;
80409;SDS011;69746;45.596;10.154;2023-06-24T04:01:56;3.55;;;2.58;;
80409;SDS011;69746;45.596;10.154;2023-06-24T04:04:22;3.38;;;2.33;;
80409;SDS011;69746;45.596;10.154;2023-06-24T04:06:50;3.83;;;2.53;;
80409;SDS011;69746;45.596;10.154;2023-06-24T04:09:16;3.78;;;2.70;;
80409;SDS011;69746;45.596;10.154;2023-06-24T04:11:42;3.90;;;2.72;;
80409;SDS011;69746;45.596;10.154;2023-06-24T04:14:08;4.85;;;2.97;;
80409;SDS011;69746;45.596;10.154;2023-06-24T04:16:35;4.03;;;2.80;;
80409;SDS011;69746;45.596;10.154;2023-06-24T04:19:01;4.55;;;2.75;;
80409;SDS011;69746;45.596;10.154;2023-06-24T04:21:27;3.67;;;2.75;;
80409;SDS011;69746;45.596;10.154;2023-06-24T04:23:53;3.88;;;2.80;;
80409;SDS011;69746;45.596;10.154;2023-06-24T04:26:19;4.10;;;2.70;;
80409;SDS011;69746;45.596;10.154;2023-06-24T04:28:45;3.75;;;2.83;;
80409;SDS011;69746;45.596;10.154;2023-06-24T04:31:11;4.05;;;3.00;;
80409;SDS011;69746;45.596;10.154;2023-06-24T04:33:36;4.00;;;2.70;;
80409;SDS011;69746;45.596;10.154;2023-06-24T04:36:02;5.57;;;3.15;;
80409;SDS011;69746;45.596;10.154;2023-06-24T04:38:28;4.13;;;2.78;;
80409;SDS011;69746;45.596;10.154;2023-06-24T04:40:54;4.05;;;2.58;;
80409;SDS011;69746;45.596;10.154;2023-06-24T04:43:20;3.42;;;2.60;;
80409;SDS011;69746;45.596;10.154;2023-06-24T04:45:46;4.60;;;2.70;;
80409;SDS011;69746;45.596;10.154;2023-06-24T04:48:12;3.50;;;2.60;;
80409;SDS011;69746;45.596;10.154;2023-06-24T04:50:37;3.50;;;2.65;;
80409;SDS011;69746;45.596;10.154;2023-06-24T04:53:03;3.85;;;2.50;;
80409;SDS011;69746;45.596;10.154;2023-06-24T04:55:29;3.75;;;2.85;;
80409;SDS011;69746;45.596;10.154;2023-06-24T04:57:55;3.78;;;2.85;;
80409;SDS011;69746;45.596;10.154;2023-06-24T05:00:21;4.15;;;2.42;;
80409;SDS011;69746;45.596;10.154;2023-06-24T05:02:50;3.72;;;2.55;;
80409;SDS011;69746;45.596;10.154;2023-06-24T05:05:16;5.63;;;3.20;;
80409;SDS011;69746;45.596;10.154;2023-06-24T05:07:41;4.70;;;2.83;;
80409;SDS011;69746;45.596;10.154;2023-06-24T05:10:07;4.50;;;2.85;;
80409;SDS011;69746;45.596;10.154;2023-06-24T05:12:33;4.63;;;3.10;;
80409;SDS011;69746;45.596;10.154;2023-06-24T05:14:59;4.80;;;3.08;;
80409;SDS011;69746;45.596;10.154;2023-06-24T05:17:25;5.05;;;2.83;;
80409;SDS011;69746;45.596;10.154;2023-06-24T05:19:51;3.78;;;2.95;;
80409;SDS011;69746;45.596;10.154;2023-06-24T05:22:16;4.10;;;2.90;;
80409;SDS011;69746;45.596;10.154;2023-06-24T05:24:43;4.25;;;2.80;;
80409;SDS011;69746;45.596;10.154;2023-06-24T05:27:09;3.70;;;2.70;;
80409;SDS011;69746;45.596;10.154;2023-06-24T05:29:34;4.07;;;2.90;;
80409;SDS011;69746;45.596;10.154;2023-06-24T05:32:03;4.80;;;3.05;;
80409;SDS011;69746;45.596;10.154;2023-06-24T05:34:30;5.00;;;3.03;;
80409;SDS011;69746;45.596;10.154;2023-06-24T05:36:56;4.70;;;3.22;;
80409;SDS011;69746;45.596;10.154;2023-06-24T05:39:23;6.35;;;3.00;;
80409;SDS011;69746;45.596;10.154;2023-06-24T05:41:52;4.32;;;2.83;;
80409;SDS011;69746;45.596;10.154;2023-06-24T05:44:18;5.30;;;3.38;;
80409;SDS011;69746;45.596;10.154;2023-06-24T05:46:46;7.28;;;3.25;;
80409;SDS011;69746;45.596;10.154;2023-06-24T05:49:12;6.60;;;3.40;;
80409;SDS011;69746;45.596;10.154;2023-06-24T05:51:37;5.15;;;2.80;;
80409;SDS011;69746;45.596;10.154;2023-06-24T05:54:03;5.22;;;2.90;;
80409;SDS011;69746;45.596;10.154;2023-06-24T05:56:29;5.28;;;2.97;;
80409;SDS011;69746;45.596;10.154;2023-06-24T06:01:22;4.22;;;2.72;;
80409;SDS011;69746;45.596;10.154;2023-06-24T06:03:50;6.13;;;2.95;;
80409;SDS011;69746;45.596;10.154;2023-06-24T06:06:16;4.43;;;2.63;;
80409;SDS011;69746;45.596;10.154;2023-06-24T06:08:42;4.63;;;2.70;;
80409;SDS011;69746;45.596;10.154;2023-06-24T06:11:08;3.58;;;2.67;;
80409;SDS011;69746;45.596;10.154;2023-06-24T06:13:34;4.88;;;3.00;;
80409;SDS011;69746;45.596;10.154;2023-06-24T06:16:00;5.28;;;2.75;;
80409;SDS011;69746;45.596;10.154;2023-06-24T06:18:26;5.53;;;2.60;;
80409;SDS011;69746;45.596;10.154;2023-06-24T06:20:52;6.35;;;2.95;;
80409;SDS011;69746;45.596;10.154;2023-06-24T06:23:17;3.85;;;2.60;;
80409;SDS011;69746;45.596;10.154;2023-06-24T06:25:43;6.38;;;3.00;;
80409;SDS011;69746;45.596;10.154;2023-06-24T06:28:12;7.13;;;2.90;;
80409;SDS011;69746;45.596;10.154;2023-06-24T06:30:38;4.00;;;2.70;;
80409;SDS011;69746;45.596;10.154;2023-06-24T06:33:04;4.28;;;2.80;;
80409;SDS011;69746;45.596;10.154;2023-06-24T06:35:31;4.20;;;2.70;;
80409;SDS011;69746;45.596;10.154;2023-06-24T06:37:58;4.90;;;2.80;;
80409;SDS011;69746;45.596;10.154;2023-06-24T06:40:24;3.25;;;2.20;;
80409;SDS011;69746;45.596;10.154;2023-06-24T06:42:50;4.82;;;2.92;;
80409;SDS011;69746;45.596;10.154;2023-06-24T06:45:16;5.47;;;2.80;;
80409;SDS011;69746;45.596;10.154;2023-06-24T06:47:44;3.95;;;2.70;;
80409;SDS011;69746;45.596;10.154;2023-06-24T06:50:10;7.95;;;3.20;;
80409;SDS011;69746;45.596;10.154;2023-06-24T06:52:36;4.43;;;2.97;;
80409;SDS011;69746;45.596;10.154;2023-06-24T06:55:09;7.30;;;3.40;;
80409;SDS011;69746;45.596;10.154;2023-06-24T06:57:36;7.45;;;3.28;;
80409;SDS011;69746;45.596;10.154;2023-06-24T07:00:02;8.15;;;2.80;;
80409;SDS011;69746;45.596;10.154;2023-06-24T07:02:31;4.38;;;2.80;;
80409;SDS011;69746;45.596;10.154;2023-06-24T07:04:56;5.43;;;2.75;;
80409;SDS011;69746;45.596;10.154;2023-06-24T07:07:25;7.43;;;2.85;;
80409;SDS011;69746;45.596;10.154;2023-06-24T07:09:51;7.35;;;2.70;;
80409;SDS011;69746;45.596;10.154;2023-06-24T07:12:17;5.38;;;2.42;;
80409;SDS011;69746;45.596;10.154;2023-06-24T07:14:42;7.93;;;3.03;;
80409;SDS011;69746;45.596;10.154;2023-06-24T07:17:08;9.60;;;3.00;;
80409;SDS011;69746;45.596;10.154;2023-06-24T07:19:34;13.63;;;3.33;;
80409;SDS011;69746;45.596;10.154;2023-06-24T07:22:00;6.60;;;2.97;;
80409;SDS011;69746;45.596;10.154;2023-06-24T07:24:26;6.63;;;2.90;;
80409;SDS011;69746;45.596;10.154;2023-06-24T07:26:51;6.82;;;2.92;;
80409;SDS011;69746;45.596;10.154;2023-06-24T07:29:23;9.95;;;2.95;;
80409;SDS011;69746;45.596;10.154;2023-06-24T07:31:49;7.63;;;3.30;;
80409;SDS011;69746;45.596;10.154;2023-06-24T07:34:15;8.00;;;3.05;;
80409;SDS011;69746;45.596;10.154;2023-06-24T07:36:42;10.23;;;3.00;;
80409;SDS011;69746;45.596;10.154;2023-06-24T07:41:34;6.93;;;2.80;;
80409;SDS011;69746;45.596;10.154;2023-06-24T07:44:02;9.70;;;3.03;;
80409;SDS011;69746;45.596;10.154;2023-06-24T07:46:28;4.85;;;2.72;;
80409;SDS011;69746;45.596;10.154;2023-06-24T07:51:21;7.55;;;2.75;;
80409;SDS011;69746;45.596;10.154;2023-06-24T07:53:47;5.82;;;2.67;;
80409;SDS011;69746;45.596;10.154;2023-06-24T07:56:13;10.57;;;3.10;;
80409;SDS011;69746;45.596;10.154;2023-06-24T07:58:39;7.63;;;2.92;;
80409;SDS011;69746;45.596;10.154;2023-06-24T08:01:05;10.30;;;3.20;;
80409;SDS011;69746;45.596;10.154;2023-06-24T08:03:34;7.93;;;2.63;;
80409;SDS011;69746;45.596;10.154;2023-06-24T08:06:02;7.07;;;3.38;;
80409;SDS011;69746;45.596;10.154;2023-06-24T08:08:28;6.38;;;2.83;;
80409;SDS011;69746;45.596;10.154;2023-06-24T08:10:53;5.60;;;2.42;;
80409;SDS011;69746;45.596;10.154;2023-06-24T08:13:20;6.15;;;2.75;;
80409;SDS011;69746;45.596;10.154;2023-06-24T08:15:46;6.63;;;2.67;;
80409;SDS011;69746;45.596;10.154;2023-06-24T08:18:12;11.18;;;3.17;;
80409;SDS011;69746;45.596;10.154;2023-06-24T08:20:38;7.15;;;2.72;;
80409;SDS011;69746;45.596;10.154;2023-06-24T08:23:04;7.03;;;2.80;;
80409;SDS011;69746;45.596;10.154;2023-06-24T08:25:29;7.75;;;2.80;;
80409;SDS011;69746;45.596;10.154;2023-06-24T08:27:55;6.03;;;2.88;;
80409;SDS011;69746;45.596;10.154;2023-06-24T08:30:21;5.60;;;2.92;;
80409;SDS011;69746;45.596;10.154;2023-06-24T08:32:48;5.97;;;3.13;;
80409;SDS011;69746;45.596;10.154;2023-06-24T08:35:20;6.63;;;2.70;;
80409;SDS011;69746;45.596;10.154;2023-06-24T08:37:49;5.03;;;2.63;;
80409;SDS011;69746;45.596;10.154;2023-06-24T08:40:17;5.55;;;2.80;;
80409;SDS011;69746;45.596;10.154;2023-06-24T08:42:44;6.22;;;2.40;;
80409;SDS011;69746;45.596;10.154;2023-06-24T08:45:10;5.82;;;2.42;;
80409;SDS011;69746;45.596;10.154;2023-06-24T08:47:39;9.27;;;2.90;;
80409;SDS011;69746;45.596;10.154;2023-06-24T08:50:11;5.80;;;2.72;;
80409;SDS011;69746;45.596;10.154;2023-06-24T08:52:38;6.40;;;2.72;;
80409;SDS011;69746;45.596;10.154;2023-06-24T08:55:12;6.78;;;2.70;;
80409;SDS011;69746;45.596;10.154;2023-06-24T08:57:41;10.43;;;3.10;;
80409;SDS011;69746;45.596;10.154;2023-06-24T09:00:07;7.65;;;2.72;;
80409;SDS011;69746;45.596;10.154;2023-06-24T09:02:39;10.23;;;2.90;;
80409;SDS011;69746;45.596;10.154;2023-06-24T09:05:05;7.25;;;2.70;;
80409;SDS011;69746;45.596;10.154;2023-06-24T09:07:33;5.72;;;2.63;;
80409;SDS011;69746;45.596;10.154;2023-06-24T09:10:01;7.43;;;2.50;;
80409;SDS011;69746;45.596;10.154;2023-06-24T09:12:30;4.93;;;2.58;;
80409;SDS011;69746;45.596;10.154;2023-06-24T09:14:58;5.90;;;2.55;;
80409;SDS011;69746;45.596;10.154;2023-06-24T09:17:24;7.28;;;2.63;;
80409;SDS011;69746;45.596;10.154;2023-06-24T09:19:50;7.57;;;2.92;;
80409;SDS011;69746;45.596;10.154;2023-06-24T09:22:17;5.95;;;2.42;;
80409;SDS011;69746;45.596;10.154;2023-06-24T09:24:44;9.70;;;2.80;;
80409;SDS011;69746;45.596;10.154;2023-06-24T09:27:13;7.97;;;2.58;;
80409;SDS011;69746;45.596;10.154;2023-06-24T09:29:45;5.95;;;2.60;;
80409;SDS011;69746;45.596;10.154;2023-06-24T09:32:12;5.68;;;2.65;;
80409;SDS011;69746;45.596;10.154;2023-06-24T09:34:38;6.82;;;2.50;;
80409;SDS011;69746;45.596;10.154;2023-06-24T09:37:05;7.53;;;2.42;;
80409;SDS011;69746;45.596;10.154;2023-06-24T09:39:37;4.63;;;2.50;;
80409;SDS011;69746;45.596;10.154;2023-06-24T09:42:05;9.57;;;2.90;;
80409;SDS011;69746;45.596;10.154;2023-06-24T09:44:37;4.68;;;2.50;;
80409;SDS011;69746;45.596;10.154;2023-06-24T09:47:03;6.75;;;2.65;;
80409;SDS011;69746;45.596;10.154;2023-06-24T09:49:32;6.60;;;2.60;;
80409;SDS011;69746;45.596;10.154;2023-06-24T09:51:58;6.90;;;2.13;;
80409;SDS011;69746;45.596;10.154;2023-06-24T09:54:26;6.95;;;2.50;;
80409;SDS011;69746;45.596;10.154;2023-06-24T09:56:54;7.18;;;2.22;;
80409;SDS011;69746;45.596;10.154;2023-06-24T09:59:25;4.72;;;2.30;;
80409;SDS011;69746;45.596;10.154;2023-06-24T10:01:53;5.88;;;2.60;;
80409;SDS011;69746;45.596;10.154;2023-06-24T10:04:22;5.50;;;2.75;;
80409;SDS011;69746;45.596;10.154;2023-06-24T10:06:51;7.70;;;2.80;;
80409;SDS011;69746;45.596;10.154;2023-06-24T10:09:20;6.38;;;2.65;;
80409;SDS011;69746;45.596;10.154;2023-06-24T10:11:46;4.63;;;2.50;;
80409;SDS011;69746;45.596;10.154;2023-06-24T10:14:13;6.43;;;2.55;;
80409;SDS011;69746;45.596;10.154;2023-06-24T10:16:40;6.63;;;2.30;;
80409;SDS011;69746;45.596;10.154;2023-06-24T10:19:09;7.00;;;2.33;;
80409;SDS011;69746;45.596;10.154;2023-06-24T10:21:45;6.78;;;2.45;;
80409;SDS011;69746;45.596;10.154;2023-06-24T10:24:32;7.18;;;2.20;;
80409;SDS011;69746;45.596;10.154;2023-06-24T10:27:01;5.95;;;2.38;;
80409;SDS011;69746;45.596;10.154;2023-06-24T10:29:37;4.50;;;2.13;;
80409;SDS011;69746;45.596;10.154;2023-06-24T10:32:07;9.82;;;2.50;;
80409;SDS011;69746;45.596;10.154;2023-06-24T10:34:44;5.10;;;2.42;;
80409;SDS011;69746;45.596;10.154;2023-06-24T10:37:21;5.20;;;2.53;;
80409;SDS011;69746;45.596;10.154;2023-06-24T10:42:32;5.13;;;2.78;;
80409;SDS011;69746;45.596;10.154;2023-06-24T10:47:37;4.22;;;2.03;;
80409;SDS011;69746;45.596;10.154;2023-06-24T10:50:18;5.65;;;2.30;;
80409;SDS011;69746;45.596;10.154;2023-06-24T10:52:46;4.00;;;2.22;;
80409;SDS011;69746;45.596;10.154;2023-06-24T10:55:15;4.10;;;2.13;;
80409;SDS011;69746;45.596;10.154;2023-06-24T10:57:43;5.90;;;2.40;;
80409;SDS011;69746;45.596;10.154;2023-06-24T11:00:10;5.20;;;2.33;;
80409;SDS011;69746;45.596;10.154;2023-06-24T11:02:40;5.20;;;2.38;;
80409;SDS011;69746;45.596;10.154;2023-06-24T11:05:07;5.32;;;2.30;;
80409;SDS011;69746;45.596;10.154;2023-06-24T11:07:37;5.32;;;2.50;;
80409;SDS011;69746;45.596;10.154;2023-06-24T11:10:07;4.65;;;2.08;;
80409;SDS011;69746;45.596;10.154;2023-06-24T11:12:36;3.75;;;1.92;;
80409;SDS011;69746;45.596;10.154;2023-06-24T11:15:04;4.10;;;2.30;;
80409;SDS011;69746;45.596;10.154;2023-06-24T11:17:32;4.15;;;2.00;;
80409;SDS011;69746;45.596;10.154;2023-06-24T11:19:59;4.28;;;2.30;;
80409;SDS011;69746;45.596;10.154;2023-06-24T11:22:28;4.10;;;2.25;;
80409;SDS011;69746;45.596;10.154;2023-06-24T11:24:56;4.78;;;2.40;;
80409;SDS011;69746;45.596;10.154;2023-06-24T11:27:25;4.20;;;2.20;;
80409;SDS011;69746;45.596;10.154;2023-06-24T11:29:54;5.57;;;2.70;;
80409;SDS011;69746;45.596;10.154;2023-06-24T11:32:23;5.13;;;2.90;;
80409;SDS011;69746;45.596;10.154;2023-06-24T11:34:50;3.90;;;2.17;;
80409;SDS011;69746;45.596;10.154;2023-06-24T11:37:17;4.70;;;2.35;;
80409;SDS011;69746;45.596;10.154;2023-06-24T11:39:44;3.38;;;2.00;;
80409;SDS011;69746;45.596;10.154;2023-06-24T11:42:11;3.35;;;2.17;;
80409;SDS011;69746;45.596;10.154;2023-06-24T11:44:42;3.67;;;2.20;;
80409;SDS011;69746;45.596;10.154;2023-06-24T11:47:09;4.35;;;2.05;;
80409;SDS011;69746;45.596;10.154;2023-06-24T11:49:48;4.90;;;2.35;;
80409;SDS011;69746;45.596;10.154;2023-06-24T11:52:33;2.72;;;1.90;;
80409;SDS011;69746;45.596;10.154;2023-06-24T11:57:54;3.00;;;2.00;;
80409;SDS011;69746;45.596;10.154;2023-06-24T12:00:25;5.15;;;2.38;;
80409;SDS011;69746;45.596;10.154;2023-06-24T12:02:53;4.45;;;2.00;;
80409;SDS011;69746;45.596;10.154;2023-06-24T12:05:23;3.33;;;1.80;;
80409;SDS011;69746;45.596;10.154;2023-06-24T12:07:54;3.97;;;2.13;;
80409;SDS011;69746;45.596;10.154;2023-06-24T12:10:21;3.80;;;2.15;;
80409;SDS011;69746;45.596;10.154;2023-06-24T12:12:47;3.17;;;2.30;;
80409;SDS011;69746;45.596;10.154;2023-06-24T12:15:13;3.95;;;1.90;;
80409;SDS011;69746;45.596;10.154;2023-06-24T12:17:39;3.22;;;1.95;;
80409;SDS011;69746;45.596;10.154;2023-06-24T12:20:05;3.42;;;1.95;;
80409;SDS011;69746;45.596;10.154;2023-06-24T12:25:00;3.35;;;1.92;;
80409;SDS011;69746;45.596;10.154;2023-06-24T12:27:27;3.78;;;2.17;;
80409;SDS011;69746;45.596;10.154;2023-06-24T12:29:53;4.47;;;2.00;;
80409;SDS011;69746;45.596;10.154;2023-06-24T12:32:19;4.40;;;2.20;;
80409;SDS011;69746;45.596;10.154;2023-06-24T12:34:45;4.05;;;1.75;;
80409;SDS011;69746;45.596;10.154;2023-06-24T12:37:11;4.07;;;2.22;;
80409;SDS011;69746;45.596;10.154;2023-06-24T12:39:36;4.95;;;1.95;;
80409;SDS011;69746;45.596;10.154;2023-06-24T12:42:02;3.72;;;1.98;;
80409;SDS011;69746;45.596;10.154;2023-06-24T12:44:29;4.35;;;2.10;;
80409;SDS011;69746;45.596;10.154;2023-06-24T12:46:54;2.78;;;1.60;;
80409;SDS011;69746;45.596;10.154;2023-06-24T12:49:20;4.18;;;1.77;;
80409;SDS011;69746;45.596;10.154;2023-06-24T12:51:46;4.07;;;2.00;;
80409;SDS011;69746;45.596;10.154;2023-06-24T12:54:12;3.70;;;1.80;;
80409;SDS011;69746;45.596;10.154;2023-06-24T12:56:38;4.10;;;2.28;;
80409;SDS011;69746;45.596;10.154;2023-06-24T12:59:04;3.40;;;2.00;;
80409;SDS011;69746;45.596;10.154;2023-06-24T13:01:31;2.95;;;1.83;;
80409;SDS011;69746;45.596;10.154;2023-06-24T13:03:59;3.35;;;1.90;;
80409;SDS011;69746;45.596;10.154;2023-06-24T13:06:25;4.32;;;2.08;;
80409;SDS011;69746;45.596;10.154;2023-06-24T13:08:51;3.10;;;1.75;;
80409;SDS011;69746;45.596;10.154;2023-06-24T13:11:17;2.70;;;1.77;;
80409;SDS011;69746;45.596;10.154;2023-06-24T13:13:43;3.03;;;1.70;;
80409;SDS011;69746;45.596;10.154;2023-06-24T13:16:09;3.22;;;1.58;;
80409;SDS011;69746;45.596;10.154;2023-06-24T13:18:35;2.97;;;2.08;;
80409;SDS011;69746;45.596;10.154;2023-06-24T13:21:00;5.75;;;1.75;;
80409;SDS011;69746;45.596;10.154;2023-06-24T13:23:27;3.13;;;1.90;;
80409;SDS011;69746;45.596;10.154;2023-06-24T13:25:53;3.15;;;2.03;;
80409;SDS011;69746;45.596;10.154;2023-06-24T13:28:19;3.17;;;1.73;;
80409;SDS011;69746;45.596;10.154;2023-06-24T13:30:47;3.65;;;2.00;;
80409;SDS011;69746;45.596;10.154;2023-06-24T13:33:14;2.75;;;1.70;;
80409;SDS011;69746;45.596;10.154;2023-06-24T13:35:39;3.78;;;2.05;;
80409;SDS011;69746;45.596;10.154;2023-06-24T13:38:06;2.85;;;1.50;;
80409;SDS011;69746;45.596;10.154;2023-06-24T13:40:33;3.08;;;1.98;;
80409;SDS011;69746;45.596;10.154;2023-06-24T13:42:59;3.50;;;1.98;;
80409;SDS011;69746;45.596;10.154;2023-06-24T13:45:25;4.80;;;1.88;;
80409;SDS011;69746;45.596;10.154;2023-06-24T13:47:51;2.70;;;1.73;;
80409;SDS011;69746;45.596;10.154;2023-06-24T13:50:17;2.95;;;1.60;;
80409;SDS011;69746;45.596;10.154;2023-06-24T13:52:42;2.90;;;1.50;;
80409;SDS011;69746;45.596;10.154;2023-06-24T13:55:08;2.85;;;1.70;;
80409;SDS011;69746;45.596;10.154;2023-06-24T13:57:34;3.30;;;1.80;;
80409;SDS011;69746;45.596;10.154;2023-06-24T14:00:00;3.72;;;1.77;;
80409;SDS011;69746;45.596;10.154;2023-06-24T14:02:26;3.47;;;1.63;;
80409;SDS011;69746;45.596;10.154;2023-06-24T14:04:52;3.15;;;1.85;;
80409;SDS011;69746;45.596;10.154;2023-06-24T14:07:18;2.58;;;1.73;;
80409;SDS011;69746;45.596;10.154;2023-06-24T14:09:44;3.15;;;1.70;;
80409;SDS011;69746;45.596;10.154;2023-06-24T14:12:12;3.35;;;1.60;;
80409;SDS011;69746;45.596;10.154;2023-06-24T14:14:38;2.45;;;1.40;;
80409;SDS011;69746;45.596;10.154;2023-06-24T14:17:08;3.08;;;1.70;;
80409;SDS011;69746;45.596;10.154;2023-06-24T14:19:35;2.58;;;1.70;;
80409;SDS011;69746;45.596;10.154;2023-06-24T14:22:01;3.10;;;1.77;;
80409;SDS011;69746;45.596;10.154;2023-06-24T14:24:28;2.90;;;1.80;;
80409;SDS011;69746;45.596;10.154;2023-06-24T14:26:54;3.33;;;1.70;;
80409;SDS011;69746;45.596;10.154;2023-06-24T14:29:20;2.35;;;1.50;;
80409;SDS011;69746;45.596;10.154;2023-06-24T14:31:46;3.95;;;1.80;;
80409;SDS011;69746;45.596;10.154;2023-06-24T14:34:12;2.85;;;1.45;;
80409;SDS011;69746;45.596;10.154;2023-06-24T14:36:38;3.47;;;1.70;;
80409;SDS011;69746;45.596;10.154;2023-06-24T14:39:04;2.88;;;1.38;;
80409;SDS011;69746;45.596;10.154;2023-06-24T14:41:30;2.65;;;1.60;;
80409;SDS011;69746;45.596;10.154;2023-06-24T14:43:55;3.15;;;1.90;;
80409;SDS011;69746;45.596;10.154;2023-06-24T14:46:21;2.92;;;1.77;;
80409;SDS011;69746;45.596;10.154;2023-06-24T14:48:47;4.05;;;2.00;;
80409;SDS011;69746;45.596;10.154;2023-06-24T14:51:16;2.95;;;1.88;;
80409;SDS011;69746;45.596;10.154;2023-06-24T14:53:44;2.45;;;1.70;;
80409;SDS011;69746;45.596;10.154;2023-06-24T14:56:10;3.47;;;1.63;;
80409;SDS011;69746;45.596;10.154;2023-06-24T14:58:38;2.58;;;1.58;;
80409;SDS011;69746;45.596;10.154;2023-06-24T15:01:04;3.75;;;1.60;;
80409;SDS011;69746;45.596;10.154;2023-06-24T15:03:30;3.10;;;1.50;;
80409;SDS011;69746;45.596;10.154;2023-06-24T15:05:56;3.20;;;1.75;;
80409;SDS011;69746;45.596;10.154;2023-06-24T15:08:22;2.67;;;1.30;;
80409;SDS011;69746;45.596;10.154;2023-06-24T15:10:51;3.85;;;1.73;;